Time;durP1;ratioP1;P1;durP2;ratioP2;P2;SDS_P1;SDS_P2;PMS_P1;PMS_P2;Temp;Humidity;BMP_temperature;BMP_pressure;BME280_temperature;BME280_humidity;BME280_pressure;Samples;Min_cycle;Max_cycle;Signal;HPM_P1;HPM_P2
2022/08/29 00:01:22;;;;;;;8.97;6.87;;;;;;;18.44;90.68;156100.59;5104347;28;20438;-83
2022/08/29 00:03:49;;;;;;;8.33;7.60;;;;;;;18.43;90.90;156099.28;5071246;28;20468;-83
2022/08/29 00:06:15;;;;;;;8.23;7.40;;;;;;;18.43;91.30;156097.97;5072242;28;20476;-84
2022/08/29 00:08:42;;;;;;;8.43;7.67;;;;;;;18.40;90.85;156090.22;5072077;28;20535;-83
2022/08/29 00:11:09;;;;;;;8.23;7.20;;;;;;;18.36;91.56;156079.75;5072038;28;20434;-83
2022/08/29 00:13:37;;;;;;;7.27;6.50;;;;;;;18.30;91.33;156065.44;5070747;28;20438;-83
2022/08/29 00:16:04;;;;;;;7.83;6.67;;;;;;;18.29;91.45;156062.84;5072174;28;20827;-83
2022/08/29 00:18:30;;;;;;;9.37;8.17;;;;;;;18.27;91.21;156058.91;5072588;28;20807;-83
2022/08/29 00:20:57;;;;;;;9.30;6.80;;;;;;;18.23;91.10;156048.53;5071703;28;20442;-83
2022/08/29 00:23:24;;;;;;;11.23;7.70;;;;;;;18.22;94.82;156044.59;5070610;28;20445;-83
2022/08/29 00:25:51;;;;;;;8.00;7.23;;;;;;;18.18;92.57;156035.50;5071921;28;20520;-83
2022/08/29 00:28:17;;;;;;;8.23;7.43;;;;;;;18.12;93.08;156018.56;5070591;28;20560;-83
2022/08/29 00:30:45;;;;;;;8.20;7.40;;;;;;;18.11;93.15;156017.25;5070027;28;20492;-83
2022/08/29 00:33:12;;;;;;;8.20;7.10;;;;;;;18.03;92.72;155995.16;5070665;28;20471;-83
2022/08/29 00:35:41;;;;;;;8.10;7.30;;;;;;;17.98;93.57;155983.38;5071974;28;20466;-83
2022/08/29 00:38:10;;;;;;;7.87;7.13;;;;;;;17.95;93.09;155974.31;5070665;28;20476;-83
2022/08/29 00:40:39;;;;;;;7.70;6.90;;;;;;;17.95;93.36;155975.56;5070157;28;20435;-83
2022/08/29 00:43:07;;;;;;;9.20;8.10;;;;;;;17.97;94.97;155979.50;5104204;28;20438;-83
2022/08/29 00:45:35;;;;;;;8.17;7.37;;;;;;;17.94;93.51;155973.00;5104459;28;20528;-83
2022/08/29 00:48:06;;;;;;;7.90;7.20;;;;;;;17.92;94.49;155967.78;5070435;28;20473;-83
2022/08/29 00:50:35;;;;;;;7.83;7.17;;;;;;;17.93;94.17;155970.38;5071438;28;20893;-83
2022/08/29 00:53:05;;;;;;;7.80;6.97;;;;;;;17.91;93.40;155963.88;5071544;28;20466;-83
2022/08/29 00:55:34;;;;;;;8.00;7.30;;;;;;;17.84;94.11;155946.97;5070273;28;20521;-83
2022/08/29 00:58:04;;;;;;;10.00;7.77;;;;;;;17.78;94.20;155931.31;5103840;28;20889;-83
2022/08/29 01:00:32;;;;;;;7.50;6.77;;;;;;;17.70;95.69;155910.50;5103781;28;20529;-83
2022/08/29 01:02:58;;;;;;;11.07;7.83;;;;;;;17.66;94.77;155900.06;5104592;28;20437;-83
2022/08/29 01:05:27;;;;;;;7.70;7.00;;;;;;;17.64;94.62;155894.84;5070421;28;20469;-83
2022/08/29 01:07:54;;;;;;;8.77;7.87;;;;;;;17.61;97.44;155887.03;5103785;28;20520;-83
2022/08/29 01:13:08;;;;;;;8.60;7.27;;;;;;;17.51;96.72;155862.28;5070273;28;20423;-83
2022/08/29 01:15:36;;;;;;;8.13;7.30;;;;;;;17.49;97.75;155855.78;5103967;28;20446;-83
2022/08/29 01:18:03;;;;;;;8.50;7.60;;;;;;;17.45;97.28;155845.34;5103852;28;20487;-83
2022/08/29 01:20:37;;;;;;;8.20;7.40;;;;;;;17.42;97.14;155837.56;5071469;28;20444;-83
2022/08/29 01:23:09;;;;;;;7.60;6.80;;;;;;;17.38;97.72;155827.13;5075069;28;20430;-83
2022/08/29 01:25:40;;;;;;;8.37;7.43;;;;;;;17.34;98.36;155816.72;5075317;28;20929;-83
2022/08/29 01:28:10;;;;;;;7.83;7.07;;;;;;;17.29;98.66;155805.00;5074941;28;20449;-83
2022/08/29 01:30:38;;;;;;;8.10;7.27;;;;;;;17.27;99.13;155798.47;5073524;28;20441;-83
2022/08/29 01:33:05;;;;;;;7.50;6.60;;;;;;;17.23;99.61;155789.41;5074590;28;20917;-83
2022/08/29 01:35:32;;;;;;;7.70;7.00;;;;;;;17.20;99.38;155780.28;5073671;28;20476;-83
2022/08/29 01:37:58;;;;;;;8.27;7.47;;;;;;;17.18;99.19;155776.41;5107826;28;20940;-83
2022/08/29 01:40:29;;;;;;;8.97;8.07;;;;;;;17.15;99.51;155767.28;5072179;28;20960;-83
2022/08/29 01:42:57;;;;;;;9.27;8.00;;;;;;;17.12;100.00;155759.47;5073550;28;20526;-83
2022/08/29 01:45:24;;;;;;;9.07;8.00;;;;;;;17.05;100.00;155743.81;5090513;28;20438;-83
2022/08/29 01:47:51;;;;;;;9.23;8.33;;;;;;;17.04;100.00;155741.25;5090359;28;20564;-83
2022/08/29 01:50:17;;;;;;;8.83;7.97;;;;;;;17.03;100.00;155737.31;5089982;28;20532;-83
2022/08/29 01:52:44;;;;;;;9.57;8.53;;;;;;;17.00;100.00;155729.50;5074695;28;20418;-83
2022/08/29 01:55:11;;;;;;;9.50;8.60;;;;;;;16.97;100.00;155723.00;5090374;28;20441;-83
2022/08/29 01:57:38;;;;;;;9.40;8.43;;;;;;;16.96;100.00;155720.44;5089884;28;20520;-83
2022/08/29 02:00:10;;;;;;;10.30;9.30;;;;;;;16.95;100.00;155716.50;5073588;28;20542;-83
2022/08/29 02:02:37;;;;;;;10.57;9.57;;;;;;;16.94;100.00;155713.94;5107356;28;20445;-83
2022/08/29 02:05:05;;;;;;;9.37;8.37;;;;;;;16.88;100.00;155699.63;5090138;28;20913;-83
2022/08/29 02:07:31;;;;;;;9.47;8.57;;;;;;;16.83;100.00;155686.59;5073117;28;20445;-83
2022/08/29 02:09:58;;;;;;;9.60;8.60;;;;;;;16.82;100.00;155684.00;5073036;28;20477;-83
2022/08/29 02:12:25;;;;;;;10.70;9.60;;;;;;;16.82;100.00;155684.00;5073892;28;20465;-83
2022/08/29 02:14:52;;;;;;;10.93;9.57;;;;;;;16.81;100.00;155681.38;5073482;28;20441;-83
2022/08/29 02:17:20;;;;;;;11.77;10.50;;;;;;;16.80;100.00;155678.78;5089875;28;20457;-83
2022/08/29 02:19:47;;;;;;;10.60;9.50;;;;;;;16.77;100.00;155669.66;5074300;28;20489;-83
2022/08/29 02:22:14;;;;;;;11.17;9.30;;;;;;;16.72;100.00;155657.97;5072688;28;20450;-83
2022/08/29 02:24:41;;;;;;;10.87;9.77;;;;;;;16.69;100.00;155650.16;5089783;28;20442;-83
2022/08/29 02:27:09;;;;;;;11.13;10.07;;;;;;;16.69;100.00;155648.84;5074475;28;20441;-83
2022/08/29 02:29:36;;;;;;;11.77;10.57;;;;;;;16.65;100.00;155639.78;5072883;28;20466;-83
2022/08/29 02:32:03;;;;;;;11.30;10.20;;;;;;;16.63;100.00;155634.53;5073040;28;20495;-83
2022/08/29 02:34:32;;;;;;;11.73;10.40;;;;;;;16.60;100.00;155626.72;5072482;28;20532;-83
2022/08/29 02:36:59;;;;;;;11.87;10.70;;;;;;;16.61;100.00;155629.34;5072873;28;20450;-83
2022/08/29 02:39:26;;;;;;;12.10;10.30;;;;;;;16.57;100.00;155617.66;5072221;28;20945;-83
2022/08/29 02:41:52;;;;;;;11.63;10.13;;;;;;;16.56;100.00;155616.34;5073376;28;20438;-83
2022/08/29 02:44:20;;;;;;;11.87;9.70;;;;;;;16.53;100.00;155608.53;5073631;28;20611;-83
2022/08/29 02:46:47;;;;;;;12.40;9.87;;;;;;;16.50;100.00;155599.38;5073796;28;20757;-83
2022/08/29 02:49:14;;;;;;;12.47;10.50;;;;;;;16.48;100.00;155595.47;5106316;28;20882;-83
2022/08/29 02:51:42;;;;;;;10.90;9.87;;;;;;;16.50;100.00;155599.38;5073166;28;20461;-83
2022/08/29 02:54:10;;;;;;;10.13;9.13;;;;;;;16.47;100.00;155592.88;5072120;28;20440;-83
2022/08/29 02:56:38;;;;;;;11.20;10.17;;;;;;;16.45;100.00;155587.66;5106015;28;20470;-83
2022/08/29 02:59:05;;;;;;;10.03;9.03;;;;;;;16.46;100.00;155590.28;5072306;28;20941;-83
2022/08/29 03:01:32;;;;;;;11.47;9.67;;;;;;;16.46;100.00;155590.28;5105625;28;21020;-83
2022/08/29 03:03:58;;;;;;;10.90;9.90;;;;;;;16.51;100.00;155603.28;5089023;28;20925;-83
2022/08/29 03:06:25;;;;;;;11.23;10.13;;;;;;;16.62;100.00;155631.97;5071923;28;20482;-83
2022/08/29 03:08:53;;;;;;;11.07;9.90;;;;;;;16.67;100.00;155644.97;5071740;28;20574;-83
2022/08/29 03:11:20;;;;;;;11.87;10.67;;;;;;;16.67;100.00;155644.97;5071546;28;20450;-83
2022/08/29 03:13:47;;;;;;;10.77;9.67;;;;;;;16.73;100.00;155660.53;5073022;28;20924;-83
2022/08/29 03:16:14;;;;;;;11.10;9.63;;;;;;;16.70;100.00;155652.78;5073079;28;20841;-83
2022/08/29 03:18:40;;;;;;;9.50;8.60;;;;;;;16.68;100.00;155647.53;5105583;28;20434;-83
2022/08/29 03:21:14;;;;;;;10.37;9.37;;;;;;;16.61;100.00;155629.34;5071297;28;20442;-83
2022/08/29 03:23:41;;;;;;;13.33;10.13;;;;;;;16.52;100.00;155604.59;5105423;28;20426;-83
2022/08/29 03:26:09;;;;;;;9.90;9.00;;;;;;;16.43;100.00;155583.78;5071621;28;20437;-83
2022/08/29 03:28:35;;;;;;;10.70;9.70;;;;;;;16.36;100.00;155564.28;5071393;28;20470;-82
2022/08/29 03:31:02;;;;;;;12.57;9.37;;;;;;;16.35;100.00;155562.97;5071148;28;20442;-83
2022/08/29 03:33:29;;;;;;;10.90;9.80;;;;;;;16.36;100.00;155564.28;5072662;28;20434;-83
2022/08/29 03:35:56;;;;;;;11.20;9.70;;;;;;;16.40;100.00;155575.97;5071380;28;20995;-83
2022/08/29 03:38:22;;;;;;;9.57;8.67;;;;;;;16.42;100.00;155581.16;5072244;28;20763;-83
2022/08/29 03:40:49;;;;;;;11.67;10.20;;;;;;;16.45;100.00;155587.66;5072096;28;20548;-83
2022/08/29 03:43:20;;;;;;;12.97;10.60;;;;;;;16.45;100.00;155587.66;5071170;28;20434;-83
2022/08/29 03:45:47;;;;;;;9.87;8.97;;;;;;;16.39;100.00;155572.06;5072723;28;20442;-83
2022/08/29 03:48:14;;;;;;;12.43;9.13;;;;;;;16.32;100.00;155553.84;5087929;28;20437;-83
2022/08/29 03:50:41;;;;;;;14.10;9.67;;;;;;;16.28;100.00;155543.47;5087792;28;20488;-85
2022/08/29 03:53:08;;;;;;;10.70;9.60;;;;;;;16.24;100.00;155534.34;5072366;28;20418;-83
2022/08/29 03:55:34;;;;;;;10.80;9.70;;;;;;;16.19;100.00;155520.03;5087892;28;20464;-83
2022/08/29 03:58:01;;;;;;;10.67;9.63;;;;;;;16.16;100.00;155512.25;5070902;28;20836;-83
2022/08/29 04:00:29;;;;;;;10.27;9.30;;;;;;;16.16;100.00;155513.53;5070891;28;20952;-84
2022/08/29 04:02:57;;;;;;;11.83;10.53;;;;;;;16.17;100.00;155516.16;5087551;28;20535;-83
2022/08/29 04:05:24;;;;;;;10.47;9.47;;;;;;;16.18;100.00;155517.44;5088071;28;20855;-83
2022/08/29 04:07:53;;;;;;;9.90;8.87;;;;;;;16.12;100.00;155503.16;5071122;28;20438;-83
2022/08/29 04:10:22;;;;;;;13.10;11.13;;;;;;;16.13;100.00;155505.75;5070671;28;21032;-83
2022/08/29 04:12:50;;;;;;;11.07;9.97;;;;;;;16.10;100.00;155497.94;5070523;28;20466;-83
2022/08/29 04:15:17;;;;;;;10.70;9.60;;;;;;;16.08;100.00;155492.75;5104485;28;20457;-83
2022/08/29 04:17:45;;;;;;;11.40;10.20;;;;;;;16.08;100.00;155492.75;5104615;28;20820;-83
2022/08/29 04:20:13;;;;;;;10.37;9.27;;;;;;;16.10;100.00;155497.94;5070606;28;20534;-82
2022/08/29 04:22:41;;;;;;;10.60;9.57;;;;;;;16.14;100.00;155507.06;5071739;28;20784;-82
2022/08/29 04:25:11;;;;;;;11.30;10.20;;;;;;;16.18;100.00;155517.44;5071924;28;20490;-83
2022/08/29 04:27:38;;;;;;;11.50;9.67;;;;;;;16.13;100.00;155505.75;5070945;28;20457;-83
2022/08/29 04:30:07;;;;;;;10.90;9.80;;;;;;;16.17;100.00;155516.16;5104522;28;20578;-82
2022/08/29 04:32:34;;;;;;;12.13;10.73;;;;;;;16.19;100.00;155520.03;5104370;28;20482;-83
2022/08/29 04:35:02;;;;;;;12.40;11.13;;;;;;;16.19;100.00;155520.03;5071881;28;20426;-83
2022/08/29 04:37:28;;;;;;;11.30;10.20;;;;;;;16.15;100.00;155509.66;5070344;28;20547;-83
2022/08/29 04:39:55;;;;;;;12.13;9.90;;;;;;;16.13;100.00;155504.44;5050389;28;20979;-83
2022/08/29 04:42:22;;;;;;;10.53;9.50;;;;;;;16.07;100.00;155488.88;5051842;28;20557;-83
2022/08/29 04:44:48;;;;;;;11.40;10.33;;;;;;;16.07;100.00;155488.88;5083847;28;20642;-83
2022/08/29 04:47:15;;;;;;;11.80;10.43;;;;;;;16.12;100.00;155501.88;5065368;28;20668;-83
2022/08/29 04:49:42;;;;;;;11.13;10.03;;;;;;;16.12;100.00;155503.16;5070232;28;20462;-83
2022/08/29 04:52:12;;;;;;;12.43;11.23;;;;;;;16.08;100.00;155491.44;5071685;28;20444;-83
2022/08/29 04:54:39;;;;;;;12.40;11.10;;;;;;;16.05;100.00;155483.63;5070289;28;20440;-83
2022/08/29 04:57:06;;;;;;;12.63;11.03;;;;;;;16.01;100.00;155473.25;5074664;28;20918;-83
2022/08/29 04:59:33;;;;;;;13.00;11.70;;;;;;;16.01;100.00;155473.25;5074293;28;20440;-83
2022/08/29 05:02:00;;;;;;;12.87;11.00;;;;;;;16.03;100.00;155478.44;5075748;28;20441;-83
2022/08/29 05:04:27;;;;;;;13.73;12.17;;;;;;;16.05;100.00;155484.94;5074102;28;20442;-83
2022/08/29 05:06:53;;;;;;;13.67;12.13;;;;;;;16.07;100.00;155488.88;5076037;28;20533;-83
2022/08/29 05:09:22;;;;;;;13.13;11.17;;;;;;;16.07;100.00;155490.13;5074028;28;20469;-83
2022/08/29 05:11:48;;;;;;;15.63;12.57;;;;;;;16.07;100.00;155488.88;5075114;28;20436;-83
2022/08/29 05:14:15;;;;;;;16.30;13.83;;;;;;;16.09;100.00;155494.06;5057269;28;20442;-83
2022/08/29 05:16:42;;;;;;;14.20;12.80;;;;;;;16.10;100.00;155497.94;5075741;28;20529;-83
2022/08/29 05:19:09;;;;;;;15.63;14.00;;;;;;;16.07;100.00;155490.13;5075186;28;21006;-83
2022/08/29 05:21:38;;;;;;;14.30;12.60;;;;;;;16.12;100.00;155501.88;5074729;28;20532;-83
2022/08/29 05:24:05;;;;;;;15.27;12.90;;;;;;;16.14;100.00;155507.06;5075209;28;20432;-83
2022/08/29 05:26:35;;;;;;;13.90;12.20;;;;;;;16.12;100.00;155501.88;5073957;28;20960;-83
2022/08/29 05:29:02;;;;;;;14.43;12.13;;;;;;;16.14;100.00;155507.06;5073520;28;20465;-83
2022/08/29 05:31:29;;;;;;;12.73;11.53;;;;;;;16.17;100.00;155514.88;5074922;28;20438;-83
2022/08/29 05:33:56;;;;;;;15.30;11.73;;;;;;;16.21;100.00;155525.25;5075078;28;20426;-83
2022/08/29 05:36:23;;;;;;;14.13;12.73;;;;;;;16.27;100.00;155542.16;5073864;28;20492;-83
2022/08/29 05:38:50;;;;;;;12.30;10.93;;;;;;;16.35;100.00;155562.97;5073267;28;20445;-83
2022/08/29 05:41:17;;;;;;;13.13;10.63;;;;;;;16.51;100.00;155603.28;5074674;28;20525;-83
2022/08/29 05:43:45;;;;;;;13.10;11.33;;;;;;;16.72;100.00;155657.97;5073579;28;20448;-83
2022/08/29 05:46:12;;;;;;;15.00;11.50;;;;;;;17.04;100.00;155741.25;5074769;28;20434;-83
2022/08/29 05:48:40;;;;;;;14.03;11.73;;;;;;;17.31;100.00;155808.91;5073474;28;20532;-83
2022/08/29 05:51:07;;;;;;;12.00;10.80;;;;;;;17.61;100.00;155887.03;5073091;28;20470;-83
2022/08/29 05:53:34;;;;;;;16.13;12.70;;;;;;;17.75;100.00;155923.50;5073264;28;20481;-83
2022/08/29 05:56:01;;;;;;;13.23;11.73;;;;;;;17.94;100.00;155973.00;5072925;28;20494;-83
2022/08/29 05:58:28;;;;;;;15.03;10.97;;;;;;;18.12;100.00;156019.88;5073378;28;20441;-83
2022/08/29 06:00:56;;;;;;;13.17;11.50;;;;;;;18.27;100.00;156056.34;5073226;28;21014;-83
2022/08/29 06:03:22;;;;;;;14.13;11.43;;;;;;;18.53;100.00;156124.13;5072885;28;20450;-83
2022/08/29 06:05:51;;;;;;;12.80;11.40;;;;;;;18.60;100.00;156143.66;5073091;28;20434;-83
2022/08/29 06:08:17;;;;;;;12.77;11.47;;;;;;;18.74;98.88;156180.09;5072820;28;20532;-83
2022/08/29 06:10:44;;;;;;;13.33;11.93;;;;;;;18.85;97.55;156208.78;5072696;28;20473;-83
2022/08/29 06:13:11;;;;;;;13.53;12.00;;;;;;;19.14;95.87;156283.03;5073967;28;20431;-83
2022/08/29 06:15:38;;;;;;;12.50;11.20;;;;;;;19.36;94.78;156340.41;5072923;28;20923;-82
2022/08/29 06:18:06;;;;;;;12.07;10.87;;;;;;;19.55;93.94;156387.38;5073001;28;20967;-83
2022/08/29 06:20:33;;;;;;;11.47;10.27;;;;;;;19.61;91.30;156403.03;5073900;28;20525;-82
2022/08/29 06:22:59;;;;;;;13.10;11.33;;;;;;;19.71;89.48;156430.41;5073954;28;20792;-83
2022/08/29 06:25:26;;;;;;;11.37;10.03;;;;;;;19.85;91.00;156465.63;5073883;28;20484;-83
2022/08/29 06:27:54;;;;;;;11.83;10.63;;;;;;;20.11;89.28;156533.41;5072642;28;20442;-83
2022/08/29 06:30:21;;;;;;;11.63;10.20;;;;;;;20.40;88.67;156607.78;5055975;28;20552;-82
2022/08/29 06:32:47;;;;;;;11.80;10.43;;;;;;;20.61;86.91;156663.91;5072369;28;20434;-83
2022/08/29 06:35:15;;;;;;;10.47;9.43;;;;;;;20.81;85.70;156714.75;5072344;28;20434;-83
2022/08/29 06:37:42;;;;;;;12.10;10.50;;;;;;;20.99;85.97;156760.44;5073525;28;20553;-82
2022/08/29 06:40:11;;;;;;;11.10;10.00;;;;;;;21.17;84.47;156807.47;5073998;28;20454;-82
2022/08/29 06:42:38;;;;;;;11.23;10.23;;;;;;;21.32;83.22;156845.31;5073392;28;20442;-83
2022/08/29 06:45:07;;;;;;;10.70;9.40;;;;;;;21.68;82.33;156940.59;5052337;28;20458;-82
2022/08/29 06:47:34;;;;;;;12.27;11.07;;;;;;;21.76;81.69;156961.47;5053473;28;20447;-82
2022/08/29 06:50:01;;;;;;;12.33;10.07;;;;;;;21.90;80.03;156996.78;5053398;28;20466;-82
2022/08/29 06:52:29;;;;;;;11.10;10.00;;;;;;;21.95;79.81;157008.56;5053666;28;20984;-82
2022/08/29 06:54:56;;;;;;;11.80;10.20;;;;;;;22.13;79.47;157055.56;5085693;28;20449;-82
2022/08/29 06:57:22;;;;;;;12.77;9.50;;;;;;;22.20;78.92;157073.84;5053323;28;20470;-82
2022/08/29 06:59:49;;;;;;;12.20;10.07;;;;;;;22.53;79.07;157160.03;5068819;28;20838;-82
2022/08/29 07:02:16;;;;;;;12.00;10.90;;;;;;;22.70;76.26;157204.50;5058376;28;20540;-82
2022/08/29 07:04:42;;;;;;;10.80;9.73;;;;;;;22.80;75.41;157230.63;5071996;28;20448;-82
2022/08/29 07:07:09;;;;;;;11.00;9.90;;;;;;;22.95;74.86;157269.81;5073121;28;20434;-82
2022/08/29 07:09:37;;;;;;;13.13;10.57;;;;;;;22.92;73.65;157262.03;5071868;28;20980;-83
2022/08/29 07:12:05;;;;;;;11.33;10.17;;;;;;;23.15;74.61;157319.47;5071448;28;20489;-82
2022/08/29 07:14:32;;;;;;;15.23;10.57;;;;;;;23.27;72.64;157350.88;5073077;28;20414;-82
2022/08/29 07:16:59;;;;;;;12.10;11.00;;;;;;;23.46;72.73;157401.88;5071524;28;21024;-82
2022/08/29 07:19:26;;;;;;;13.27;11.67;;;;;;;23.67;71.60;157455.47;5070882;28;20454;-82
2022/08/29 07:21:53;;;;;;;11.67;10.30;;;;;;;23.97;70.97;157532.59;5072485;28;20441;-82
2022/08/29 07:24:20;;;;;;;13.10;10.63;;;;;;;23.98;69.14;157536.56;5071662;28;20434;-82
2022/08/29 07:26:48;;;;;;;10.60;9.70;;;;;;;24.03;69.43;157549.63;5071390;28;21001;-82
2022/08/29 07:29:17;;;;;;;11.70;10.60;;;;;;;24.22;69.64;157599.31;5072808;28;20458;-82
2022/08/29 07:31:44;;;;;;;11.87;10.70;;;;;;;24.21;68.83;157596.75;5072179;28;20858;-82
2022/08/29 07:34:11;;;;;;;11.90;10.80;;;;;;;23.73;70.09;157469.84;5072712;28;20517;-82
2022/08/29 07:36:37;;;;;;;12.40;11.30;;;;;;;23.71;70.80;157465.94;5070968;28;20448;-82
2022/08/29 07:39:06;;;;;;;11.40;10.33;;;;;;;23.97;69.98;157532.59;5071297;28;20465;-82
2022/08/29 07:41:33;;;;;;;11.20;10.10;;;;;;;24.17;69.89;157586.25;5072523;28;20440;-82
2022/08/29 07:44:01;;;;;;;12.13;10.93;;;;;;;24.46;68.50;157660.84;5071222;28;20921;-82
2022/08/29 07:46:28;;;;;;;12.00;10.90;;;;;;;24.22;69.31;157598.06;5071175;28;20445;-82
2022/08/29 07:48:55;;;;;;;12.97;11.87;;;;;;;24.29;68.29;157615.03;5071496;28;20442;-82
2022/08/29 07:51:23;;;;;;;11.03;9.93;;;;;;;24.59;68.54;157694.84;5071017;28;20531;-82
2022/08/29 07:53:50;;;;;;;13.80;11.10;;;;;;;24.48;68.49;157664.75;5071921;28;20863;-82
2022/08/29 07:56:19;;;;;;;12.40;11.30;;;;;;;24.45;69.16;157656.91;5071913;28;20572;-82
2022/08/29 07:58:46;;;;;;;13.20;11.87;;;;;;;24.52;67.75;157676.50;5072192;28;20509;-82
2022/08/29 08:01:14;;;;;;;12.73;11.53;;;;;;;24.28;68.11;157613.72;5070772;28;20453;-82
2022/08/29 08:03:41;;;;;;;12.37;11.27;;;;;;;24.31;69.28;157620.25;5071839;28;20460;-82
2022/08/29 08:06:09;;;;;;;13.43;12.13;;;;;;;24.56;68.40;157687.00;5070866;28;20491;-82
2022/08/29 08:08:36;;;;;;;11.77;10.60;;;;;;;25.04;67.82;157811.34;5072108;28;20458;-82
2022/08/29 08:11:03;;;;;;;16.87;13.00;;;;;;;24.88;65.50;157769.47;5071921;28;20478;-82
2022/08/29 08:13:30;;;;;;;12.87;11.63;;;;;;;24.98;66.21;157795.63;5071784;28;20516;-82
2022/08/29 08:15:57;;;;;;;12.27;11.17;;;;;;;25.10;65.74;157827.00;5072008;28;20758;-82
2022/08/29 08:18:25;;;;;;;14.47;13.00;;;;;;;25.06;65.50;157816.56;5071959;28;20426;-83
2022/08/29 08:20:52;;;;;;;12.60;11.50;;;;;;;25.14;65.08;157837.50;5072004;28;20826;-82
2022/08/29 08:23:19;;;;;;;13.33;11.93;;;;;;;25.36;64.62;157895.03;5070287;28;20432;-82
2022/08/29 08:25:45;;;;;;;12.67;11.50;;;;;;;25.44;64.18;157916.00;5071854;28;20434;-82
2022/08/29 08:28:13;;;;;;;13.07;11.67;;;;;;;25.31;63.80;157881.97;5071655;28;20525;-82
2022/08/29 08:30:40;;;;;;;12.13;10.80;;;;;;;25.53;63.69;157936.97;5103451;28;20470;-82
2022/08/29 08:33:06;;;;;;;12.20;11.00;;;;;;;25.93;62.20;158041.72;5103967;28;20457;-82
2022/08/29 08:35:36;;;;;;;12.50;11.40;;;;;;;26.04;62.07;158070.53;5071559;28;20924;-82
2022/08/29 08:38:03;;;;;;;12.50;11.30;;;;;;;25.46;62.04;157920.00;5071711;28;20523;-82
2022/08/29 08:40:31;;;;;;;12.30;11.10;;;;;;;25.61;62.89;157957.94;5071620;28;20426;-82
2022/08/29 08:43:00;;;;;;;11.87;9.77;;;;;;;26.03;60.59;158067.88;5071221;28;20426;-82
2022/08/29 08:45:32;;;;;;;16.50;11.53;;;;;;;25.67;61.48;157973.66;5073206;28;20449;-82
2022/08/29 08:48:03;;;;;;;12.53;10.57;;;;;;;25.57;63.52;157948.78;5070329;28;20484;-82
2022/08/29 08:50:39;;;;;;;10.40;9.40;;;;;;;25.50;62.31;157929.13;5070316;28;20517;-82
2022/08/29 08:53:09;;;;;;;11.53;10.23;;;;;;;25.53;62.34;157936.97;5070051;28;20476;-82
2022/08/29 08:55:41;;;;;;;11.27;10.23;;;;;;;25.85;61.04;158022.09;5070430;28;20520;-82
2022/08/29 08:58:14;;;;;;;14.87;10.70;;;;;;;26.07;61.60;158077.06;5070350;28;20533;-82
2022/08/29 09:00:45;;;;;;;10.27;9.30;;;;;;;26.35;59.18;158151.75;5070262;28;20495;-82
2022/08/29 09:03:31;;;;;;;11.87;10.77;;;;;;;25.81;61.03;158011.63;5071330;28;20425;-82
2022/08/29 09:06:09;;;;;;;12.00;10.80;;;;;;;25.01;63.41;157803.47;5070538;28;20484;-82
2022/08/29 09:08:41;;;;;;;9.83;8.87;;;;;;;24.68;64.70;157717.06;5070285;28;20430;-82
2022/08/29 09:11:15;;;;;;;11.27;10.23;;;;;;;24.74;64.02;157732.75;5071589;28;20473;-82
2022/08/29 09:13:46;;;;;;;10.67;9.60;;;;;;;25.14;64.36;157836.19;5069958;28;20434;-82
2022/08/29 09:16:20;;;;;;;11.23;10.03;;;;;;;25.50;63.10;157930.44;5070098;28;20435;-83
2022/08/29 09:18:47;;;;;;;9.87;8.87;;;;;;;25.36;62.79;157895.03;5070029;28;20470;-83
2022/08/29 09:21:16;;;;;;;11.30;10.30;;;;;;;24.83;63.95;157755.06;5070082;28;20430;-83
2022/08/29 09:23:44;;;;;;;10.10;9.10;;;;;;;24.78;64.30;157743.25;5069685;28;20532;-83
2022/08/29 09:26:12;;;;;;;11.30;9.07;;;;;;;24.49;63.91;157667.38;5071469;28;20434;-82
2022/08/29 09:28:39;;;;;;;9.07;7.60;;;;;;;24.44;64.35;157654.25;5103717;28;20430;-82
2022/08/29 09:31:24;;;;;;;9.60;8.70;;;;;;;24.55;64.00;157684.38;5069972;28;20581;-82
2022/08/29 09:33:52;;;;;;;8.90;8.20;;;;;;;24.49;63.76;157667.38;5070791;28;20407;-82
2022/08/29 09:36:43;;;;;;;9.40;8.27;;;;;;;24.50;64.26;157671.28;5045705;28;20447;-82
2022/08/29 09:39:20;;;;;;;8.57;7.70;;;;;;;24.31;64.80;157620.25;5083378;28;20431;-82
2022/08/29 09:41:49;;;;;;;9.73;8.80;;;;;;;24.48;65.69;157664.75;5084384;28;20442;-83
2022/08/29 09:44:21;;;;;;;8.60;7.80;;;;;;;24.36;65.94;157634.66;5054446;28;20427;-82
2022/08/29 09:47:04;;;;;;;9.40;8.50;;;;;;;24.21;65.07;157595.44;5086998;28;20481;-83
2022/08/29 09:49:31;;;;;;;12.37;9.30;;;;;;;24.00;65.99;157540.47;5054709;28;20754;-82
2022/08/29 09:52:09;;;;;;;9.67;8.87;;;;;;;24.00;66.06;157541.78;5091126;28;20980;-82
2022/08/29 09:54:35;;;;;;;10.03;9.13;;;;;;;23.88;67.02;157510.38;5074705;28;20422;-82
2022/08/29 09:57:06;;;;;;;9.50;8.60;;;;;;;23.90;66.39;157515.63;5089866;28;20575;-82
2022/08/29 09:59:34;;;;;;;9.90;8.80;;;;;;;23.88;66.47;157509.09;5090224;28;20441;-83
2022/08/29 10:02:25;;;;;;;9.53;8.63;;;;;;;24.06;65.08;157556.16;5074711;28;20434;-82
2022/08/29 10:04:54;;;;;;;9.00;8.20;;;;;;;24.11;65.09;157570.59;5058470;28;20444;-82
2022/08/29 10:07:25;;;;;;;10.00;8.30;;;;;;;24.45;64.31;157656.91;5090035;28;20440;-83
2022/08/29 10:09:57;;;;;;;9.80;7.97;;;;;;;24.59;62.76;157693.53;5089941;28;20480;-83
2022/08/29 10:12:31;;;;;;;9.17;7.17;;;;;;;24.45;62.87;157658.22;5074209;28;20484;-83
2022/08/29 10:15:01;;;;;;;8.20;7.30;;;;;;;24.30;63.21;157617.66;5089955;28;20616;-83
2022/08/29 10:20:16;;;;;;;8.10;7.30;;;;;;;24.69;61.82;157719.69;5059318;28;20430;-83
2022/08/29 10:22:46;;;;;;;10.10;6.60;;;;;;;24.32;62.12;157624.22;5073702;28;20793;-82
2022/08/29 10:25:19;;;;;;;7.30;6.60;;;;;;;24.63;61.82;157703.97;5073988;28;20410;-83
2022/08/29 10:27:50;;;;;;;7.30;6.70;;;;;;;24.39;61.37;157641.19;5073815;28;20438;-83
2022/08/29 10:30:19;;;;;;;6.57;5.97;;;;;;;24.35;61.60;157630.75;5073777;28;20410;-83
2022/08/29 10:33:10;;;;;;;6.40;5.70;;;;;;;24.37;62.48;157635.97;5073462;28;20582;-83
2022/08/29 10:35:39;;;;;;;8.97;6.10;;;;;;;24.62;60.04;157701.38;5072386;28;20884;-83
2022/08/29 10:38:15;;;;;;;6.30;5.70;;;;;;;24.69;59.80;157719.69;5073801;28;20432;-83
2022/08/29 10:40:46;;;;;;;7.70;7.00;;;;;;;24.61;60.83;157700.06;5072636;28;20480;-83
2022/08/29 10:43:23;;;;;;;6.50;5.90;;;;;;;24.48;60.74;157664.75;5071851;28;20434;-83
2022/08/29 10:46:20;;;;;;;7.33;6.10;;;;;;;24.38;60.55;157639.91;5073897;28;20438;-83
2022/08/29 10:48:54;;;;;;;7.33;6.70;;;;;;;24.26;61.12;157607.19;5073156;28;20537;-83
2022/08/29 10:51:25;;;;;;;8.03;6.33;;;;;;;24.43;61.72;157653.00;5089176;28;20491;-83
2022/08/29 10:53:58;;;;;;;6.70;6.10;;;;;;;24.61;62.09;157698.75;5070938;28;20838;-83
2022/08/29 10:56:28;;;;;;;6.70;6.20;;;;;;;24.67;61.48;157714.47;5071823;28;20679;-83
2022/08/29 10:59:02;;;;;;;8.17;7.47;;;;;;;24.61;61.56;157700.06;5073446;28;20497;-83
2022/08/29 11:01:32;;;;;;;7.63;6.93;;;;;;;24.49;61.24;157667.38;5088883;28;20727;-83
2022/08/29 11:04:07;;;;;;;7.20;6.60;;;;;;;24.60;59.88;157696.13;5071407;28;20426;-83
2022/08/29 11:06:36;;;;;;;7.77;7.07;;;;;;;24.54;59.32;157681.72;5073302;28;20952;-83
2022/08/29 11:09:08;;;;;;;7.67;6.97;;;;;;;24.39;60.19;157641.19;5088663;28;20954;-83
2022/08/29 11:11:36;;;;;;;7.20;6.50;;;;;;;24.44;61.22;157655.56;5088879;28;20805;-83
2022/08/29 11:14:19;;;;;;;7.77;6.93;;;;;;;24.50;61.97;157669.97;5088312;28;20860;-83
2022/08/29 11:16:48;;;;;;;7.93;7.20;;;;;;;24.45;61.47;157658.22;5088625;28;20784;-83
2022/08/29 11:19:19;;;;;;;8.27;6.47;;;;;;;24.65;60.60;157709.19;5071606;28;20449;-83
2022/08/29 11:21:50;;;;;;;7.43;6.70;;;;;;;24.78;61.15;157743.25;5088717;28;20916;-83
2022/08/29 11:24:19;;;;;;;7.57;6.87;;;;;;;24.77;60.48;157740.63;5088036;28;20436;-83
2022/08/29 11:26:56;;;;;;;8.87;6.40;;;;;;;24.80;59.63;157749.84;5088540;28;20485;-83